Time;durP1;ratioP1;P1;durP2;ratioP2;P2;SDS_P1;SDS_P2;PMS_P1;PMS_P2;Temp;Humidity;BMP_temperature;BMP_pressure;BME280_temperature;BME280_humidity;BME280_pressure;Samples;Min_cycle;Max_cycle;Signal;HPM_P1;HPM_P2
2022/05/06 00:00:12;;;;;;;50.55;30.65;;;;;;;13.15;63.08;102061.75;4806805;29;119800;-80
2022/05/06 00:02:38;;;;;;;50.17;31.10;;;;;;;13.15;62.86;102076.28;4798140;29;119441;-80
2022/05/06 00:05:08;;;;;;;48.47;30.27;;;;;;;13.08;63.12;102062.72;4799854;29;119278;-80
2022/05/06 00:12:17;;;;;;;52.35;30.25;;;;;;;12.95;63.20;102078.41;4795049;29;119339;-79
2022/05/06 00:23:23;;;;;;;46.35;27.55;;;;;;;12.69;62.81;102063.72;4807409;29;119472;-81
2022/05/06 00:26:51;;;;;;;44.17;29.23;;;;;;;12.63;62.90;102065.44;4779438;29;119463;-80
2022/05/06 00:58:52;;;;;;;40.22;26.73;;;;;;;12.17;61.72;102059.06;4695869;29;119478;-78
2022/05/06 01:01:19;;;;;;;50.53;28.65;;;;;;;12.15;62.29;102053.19;4699848;29;121633;-81
2022/05/06 01:03:45;;;;;;;41.72;26.92;;;;;;;12.12;61.48;102056.03;4706570;29;119875;-80
2022/05/06 01:06:13;;;;;;;40.90;26.98;;;;;;;12.09;61.66;102052.16;4700524;29;120116;-80
2022/05/06 01:08:41;;;;;;;44.65;29.15;;;;;;;11.99;62.14;102045.69;4688942;29;120024;-80
2022/05/06 01:11:07;;;;;;;45.95;28.15;;;;;;;11.99;62.19;102048.44;4693364;29;119309;-80
2022/05/06 01:13:40;;;;;;;47.45;29.60;;;;;;;12.10;63.01;102059.22;4682525;29;119898;-80
2022/05/06 01:16:07;;;;;;;77.90;37.50;;;;;;;12.10;63.35;102059.22;4753554;29;119411;-80
2022/05/06 01:18:40;;;;;;;75.70;38.07;;;;;;;12.13;63.72;102061.13;4747741;29;119878;-80
2022/05/06 01:21:08;;;;;;;73.80;36.97;;;;;;;12.19;63.53;102066.88;4754117;29;119369;-81
2022/05/06 01:23:35;;;;;;;72.75;36.90;;;;;;;12.17;63.94;102064.56;4760363;29;121267;-80
2022/05/06 01:26:01;;;;;;;91.38;40.97;;;;;;;12.18;63.92;102055.09;4732222;29;119976;-80
2022/05/06 01:28:27;;;;;;;74.90;38.60;;;;;;;12.26;64.39;102066.72;4748684;29;119750;-80
2022/05/06 01:31:01;;;;;;;79.35;38.80;;;;;;;12.24;64.36;102063.59;4747803;29;120122;-81
2022/05/06 01:33:31;;;;;;;116.07;40.30;;;;;;;12.27;63.29;102065.50;4799359;29;121915;-80
2022/05/06 01:36:05;;;;;;;141.95;42.15;;;;;;;12.18;63.73;102070.84;4821756;29;119159;-81
2022/05/06 01:38:36;;;;;;;;;;;;;;;12.08;63.70;102078.13;4788596;29;119729;-80
2022/05/06 01:41:09;;;;;;;100.15;36.20;;;;;;;12.05;64.61;102072.69;4800377;29;120007;-80
2022/05/06 01:43:55;;;;;;;73.72;35.38;;;;;;;12.09;65.16;102078.91;4816969;29;119520;-80
2022/05/06 01:46:23;;;;;;;77.35;31.27;;;;;;;12.04;64.80;102076.63;4796995;29;120566;-80
2022/05/06 01:48:56;;;;;;;72.90;33.28;;;;;;;12.09;65.48;102084.41;4788138;29;119642;-80
2022/05/06 01:51:27;;;;;;;81.60;32.80;;;;;;;12.08;65.51;102080.88;4797486;29;119779;-80
2022/05/06 01:53:53;;;;;;;55.25;30.48;;;;;;;12.11;65.34;102082.00;4786014;29;119306;-80
2022/05/06 01:56:21;;;;;;;71.15;30.35;;;;;;;12.16;65.11;102082.25;4785731;29;119728;-80
2022/05/06 01:58:51;;;;;;;51.78;30.08;;;;;;;12.05;65.08;102067.97;4800899;29;119635;-80
2022/05/06 02:01:19;;;;;;;56.42;29.30;;;;;;;12.10;65.28;102075.72;4782928;29;120908;-80
2022/05/06 02:06:32;;;;;;;56.50;28.85;;;;;;;12.12;64.98;102070.56;4799438;29;119749;-80
2022/05/06 02:09:16;;;;;;;60.13;27.15;;;;;;;12.19;64.96;102083.38;4788508;29;119920;-80
2022/05/06 02:11:59;;;;;;;65.70;28.38;;;;;;;12.15;65.04;102066.97;4781953;29;120496;-80
2022/05/06 02:14:50;;;;;;;52.30;26.88;;;;;;;12.04;64.97;102049.13;4797307;29;120593;-80
2022/05/06 02:17:35;;;;;;;53.95;25.60;;;;;;;12.19;65.08;102077.88;4800811;29;119813;-80
2022/05/06 02:20:21;;;;;;;64.80;25.23;;;;;;;12.15;64.78;102071.69;4800324;29;119419;-81
2022/05/06 02:23:17;;;;;;;53.85;27.85;;;;;;;12.08;64.88;102066.34;4796647;29;120347;-80
2022/05/06 02:25:52;;;;;;;50.50;26.98;;;;;;;12.12;65.02;102076.06;4799805;29;119505;-80
2022/05/06 02:28:27;;;;;;;43.13;26.95;;;;;;;12.12;65.31;102081.56;4802707;29;119559;-80
2022/05/06 02:33:47;;;;;;;54.65;26.38;;;;;;;12.16;65.18;102082.25;4800769;29;119733;-80
2022/05/06 02:36:25;;;;;;;54.33;28.08;;;;;;;12.18;64.82;102071.59;4794873;29;120220;-79
2022/05/06 02:38:51;;;;;;;46.70;26.85;;;;;;;12.19;64.98;102075.91;4800703;29;119464;-80
2022/05/06 02:41:17;;;;;;;50.17;27.23;;;;;;;12.21;64.64;102069.97;4784702;29;120107;-79
2022/05/06 02:43:51;;;;;;;45.88;29.17;;;;;;;12.18;64.97;102066.09;4800675;29;119259;-80
2022/05/06 02:46:19;;;;;;;43.97;28.45;;;;;;;12.19;64.76;102073.16;4767701;29;119328;-79
2022/05/06 02:48:44;;;;;;;43.83;28.35;;;;;;;12.19;64.94;102069.63;4795325;29;119722;-79
2022/05/06 02:51:13;;;;;;;45.28;29.48;;;;;;;12.16;65.14;102067.72;4788951;29;120713;-79
2022/05/06 02:53:43;;;;;;;44.30;28.10;;;;;;;12.19;64.98;102067.66;4799073;29;119367;-79
2022/05/06 02:56:11;;;;;;;42.33;27.85;;;;;;;12.25;64.90;102068.69;4796665;29;121548;-80
2022/05/06 02:58:46;;;;;;;40.45;27.55;;;;;;;12.23;64.55;102057.34;4803044;29;119595;-80
2022/05/06 03:01:12;;;;;;;40.97;27.70;;;;;;;12.23;64.63;102056.56;4787066;29;119977;-80
2022/05/06 03:03:40;;;;;;;43.17;28.08;;;;;;;12.24;64.67;102067.13;4784686;29;120116;-79
2022/05/06 03:06:14;;;;;;;45.25;29.35;;;;;;;12.23;64.36;102065.59;4804428;29;119507;-80
2022/05/06 03:08:40;;;;;;;43.55;29.23;;;;;;;12.19;64.60;102061.38;4783233;29;119486;-80
2022/05/06 03:11:05;;;;;;;46.95;29.15;;;;;;;12.19;64.13;102064.91;4794188;29;119995;-80
2022/05/06 03:13:38;;;;;;;45.67;28.25;;;;;;;12.13;64.31;102055.63;4805079;29;119378;-80
2022/05/06 03:16:08;;;;;;;42.03;27.30;;;;;;;12.17;64.50;102067.31;4809102;29;119864;-80
2022/05/06 03:18:34;;;;;;;39.50;26.55;;;;;;;12.13;64.12;102058.38;4798393;29;119631;-79
2022/05/06 03:20:59;;;;;;;38.75;25.88;;;;;;;12.11;64.00;102060.78;4797590;29;119308;-79
2022/05/06 03:23:25;;;;;;;41.50;27.02;;;;;;;12.12;64.06;102067.81;4810635;29;119282;-79
2022/05/06 03:25:51;;;;;;;33.15;24.40;;;;;;;12.11;63.77;102066.28;4795815;29;119524;-79
2022/05/06 03:28:17;;;;;;;38.45;26.42;;;;;;;12.08;64.08;102069.88;4799176;29;119408;-79
2022/05/06 03:30:47;;;;;;;42.28;27.45;;;;;;;12.01;64.32;102063.75;4791928;29;119611;-79
2022/05/06 03:33:30;;;;;;;45.65;27.98;;;;;;;11.98;63.86;102065.38;4809151;29;119639;-79
2022/05/06 03:35:59;;;;;;;41.88;27.05;;;;;;;11.96;64.08;102078.78;4805593;29;120519;-81
2022/05/06 03:38:28;;;;;;;42.50;28.52;;;;;;;11.95;64.11;102069.75;4795233;29;119256;-80
2022/05/06 03:40:56;;;;;;;44.90;28.30;;;;;;;11.85;63.98;102053.50;4764164;29;119719;-80
2022/05/06 03:43:24;;;;;;;47.67;28.75;;;;;;;11.87;63.55;102073.09;4791832;29;120081;-79
2022/05/06 03:45:51;;;;;;;42.92;27.73;;;;;;;11.84;64.05;102068.44;4782055;29;120265;-79
2022/05/06 03:48:24;;;;;;;43.63;27.83;;;;;;;11.85;64.49;102070.00;4789043;29;119325;-80
2022/05/06 03:53:40;;;;;;;40.13;26.45;;;;;;;11.88;64.79;102066.38;4782173;29;119815;-80
2022/05/06 03:56:07;;;;;;;41.97;27.55;;;;;;;11.82;64.92;102057.06;4798546;29;119811;-80
2022/05/06 03:58:41;;;;;;;38.83;26.73;;;;;;;11.96;65.15;102065.03;4800751;29;119643;-80
2022/05/06 04:01:11;;;;;;;38.45;25.70;;;;;;;12.01;65.17;102074.75;4781752;29;119268;-80
2022/05/06 04:03:43;;;;;;;37.25;26.27;;;;;;;12.11;65.35;102066.28;4772316;29;121307;-80
2022/05/06 04:06:14;;;;;;;38.20;26.20;;;;;;;12.16;65.28;102067.72;4789288;29;120101;-79
2022/05/06 04:08:47;;;;;;;36.63;26.20;;;;;;;12.25;65.37;102073.41;4796098;29;119473;-80
2022/05/06 04:11:19;;;;;;;37.20;25.80;;;;;;;12.32;65.45;102072.50;4784077;29;119672;-79
2022/05/06 04:13:47;;;;;;;39.58;27.70;;;;;;;12.35;65.16;102068.88;4813165;29;119300;-80
2022/05/06 04:16:16;;;;;;;41.00;27.50;;;;;;;12.43;65.14;102073.00;4782564;29;119665;-80
2022/05/06 04:18:43;;;;;;;38.22;26.80;;;;;;;12.43;65.27;102073.00;4800020;29;119635;-82
2022/05/06 04:23:55;;;;;;;39.22;26.77;;;;;;;12.54;65.25;102074.31;4790112;29;119388;-80
2022/05/06 04:26:20;;;;;;;41.97;29.55;;;;;;;12.63;65.44;102075.69;4770641;29;119239;-80
2022/05/06 04:28:52;;;;;;;40.17;28.08;;;;;;;12.68;65.87;102075.94;4801085;29;119384;-80
2022/05/06 04:31:18;;;;;;;41.40;28.70;;;;;;;12.75;65.55;102070.25;4798516;29;119996;-80
2022/05/06 04:33:46;;;;;;;46.42;30.85;;;;;;;12.88;65.49;102078.59;4797414;29;119572;-80
2022/05/06 04:36:31;;;;;;;46.83;29.98;;;;;;;12.89;65.85;102072.66;4801618;29;119894;-80
2022/05/06 04:39:02;;;;;;;44.35;30.90;;;;;;;13.04;66.00;102077.81;4767839;29;122678;-80
2022/05/06 04:41:29;;;;;;;44.45;30.85;;;;;;;13.12;66.15;102081.91;4799696;29;119344;-80
2022/05/06 04:43:55;;;;;;;46.33;31.60;;;;;;;13.19;66.33;102082.50;4788383;29;119341;-80
2022/05/06 04:46:25;;;;;;;47.17;31.30;;;;;;;13.23;66.15;102076.13;4801226;29;119398;-80
2022/05/06 04:48:52;;;;;;;46.55;31.67;;;;;;;13.33;65.98;102086.88;4800498;29;120874;-80
2022/05/06 04:51:19;;;;;;;46.08;30.30;;;;;;;13.31;66.12;102075.53;4784826;29;119473;-80
2022/05/06 04:53:45;;;;;;;48.42;31.05;;;;;;;13.43;65.72;102085.03;4800941;29;119440;-80
2022/05/06 04:56:11;;;;;;;43.38;30.75;;;;;;;13.50;65.80;102099.41;4815494;29;119814;-80
2022/05/06 04:58:40;;;;;;;42.25;29.30;;;;;;;13.48;65.46;102088.03;4800674;29;119250;-80
2022/05/06 05:01:11;;;;;;;40.72;29.05;;;;;;;13.60;65.56;102108.56;4786234;29;119376;-81
2022/05/06 05:03:39;;;;;;;43.85;30.02;;;;;;;13.66;65.78;102106.06;4799700;29;119202;-80
2022/05/06 05:06:06;;;;;;;44.67;30.65;;;;;;;13.62;65.02;102097.13;4802662;29;120192;-80
2022/05/06 05:08:32;;;;;;;40.15;28.98;;;;;;;13.78;65.06;102110.84;4792291;29;120037;-80
2022/05/06 05:11:02;;;;;;;41.75;28.88;;;;;;;13.79;65.25;102102.13;4792079;29;119272;-80
2022/05/06 05:13:34;;;;;;;43.47;29.55;;;;;;;13.86;64.79;102106.66;4773852;29;119391;-81
2022/05/06 05:16:01;;;;;;;49.78;31.25;;;;;;;13.93;65.26;102106.44;4800886;29;119426;-80
2022/05/06 05:18:39;;;;;;;;;;;;;;;;;;;;;
2022/05/06 05:21:37;;;;;;;45.28;29.40;;;;;;;13.99;65.28;102110.22;4754869;29;119209;-80
2022/05/06 05:24:04;;;;;;;47.53;30.08;;;;;;;13.96;64.99;102100.06;4792975;29;119532;-81
2022/05/06 05:26:32;;;;;;;54.40;33.70;;;;;;;14.00;65.31;102103.50;4782261;29;120011;-81
2022/05/06 05:28:58;;;;;;;55.22;33.20;;;;;;;14.11;65.22;102103.94;4782787;29;121176;-80
2022/05/06 05:31:26;;;;;;;65.35;36.35;;;;;;;14.11;65.50;102098.41;4799712;29;119752;-80
2022/05/06 05:33:52;;;;;;;70.07;39.60;;;;;;;14.09;65.66;102087.03;4784728;29;119402;-80
2022/05/06 05:36:19;;;;;;;69.13;36.00;;;;;;;14.20;65.30;102091.50;4782332;29;119472;-80
2022/05/06 05:38:45;;;;;;;72.43;37.90;;;;;;;14.28;65.62;102098.31;4810674;29;120318;-80
2022/05/06 05:41:12;;;;;;;68.78;37.60;;;;;;;14.37;65.94;102101.94;4785774;29;120091;-80
2022/05/06 05:49:08;;;;;;;;;;;;;;;14.37;65.24;102112.22;4805555;29;119460;-81
2022/05/06 05:51:35;;;;;;;78.68;38.53;;;;;;;14.41;65.58;102107.34;4799564;29;119505;-80
2022/05/06 05:54:01;;;;;;;76.07;39.08;;;;;;;14.46;65.67;102104.09;4792819;29;119518;-80
2022/05/06 05:56:31;;;;;;;79.10;40.85;;;;;;;14.49;65.54;102099.69;4802716;29;119438;-81
2022/05/06 05:58:57;;;;;;;81.40;39.95;;;;;;;14.47;66.24;102089.06;4800001;29;119685;-80
2022/05/06 06:01:24;;;;;;;80.82;40.70;;;;;;;14.56;65.87;102102.97;4804454;29;119873;-80
2022/05/06 06:03:54;;;;;;;71.45;33.72;;;;;;;14.48;66.02;102084.31;4804508;29;119694;-80
2022/05/06 06:06:20;;;;;;;71.60;36.63;;;;;;;14.47;65.96;102075.28;4793684;29;119956;-80
2022/05/06 06:08:49;;;;;;;75.80;36.97;;;;;;;14.63;66.34;102086.16;4799699;29;119333;-80
2022/05/06 06:11:25;;;;;;;84.40;39.47;;;;;;;14.67;66.45;102086.84;4807101;29;119512;-80
2022/05/06 06:13:52;;;;;;;76.60;38.42;;;;;;;14.73;66.03;102093.34;4802950;29;119394;-80
2022/05/06 06:16:21;;;;;;;77.07;37.05;;;;;;;14.77;66.23;102084.16;4801212;29;119742;-80
2022/05/06 06:18:48;;;;;;;75.70;37.05;;;;;;;14.89;66.34;102089.66;4801933;29;120490;-81
2022/05/06 06:21:16;;;;;;;54.78;27.75;;;;;;;14.95;66.18;102089.88;4795620;29;119817;-80
2022/05/06 06:23:43;;;;;;;66.40;32.45;;;;;;;14.98;66.02;102089.75;4798393;29;119644;-80
2022/05/06 06:26:09;;;;;;;51.40;26.40;;;;;;;14.96;65.94;102094.19;4801491;29;119392;-80
2022/05/06 06:28:35;;;;;;;68.13;29.70;;;;;;;14.96;65.75;102094.19;4771350;29;119584;-80
2022/05/06 06:31:02;;;;;;;67.40;28.20;;;;;;;14.96;65.21;102091.41;4786004;29;119958;-80
2022/05/06 06:33:27;;;;;;;72.32;29.70;;;;;;;14.99;65.28;102104.34;4804813;29;119870;-80
2022/05/06 06:35:53;;;;;;;65.60;29.55;;;;;;;14.92;65.21;102090.78;4801061;29;119838;-80
2022/05/06 06:38:19;;;;;;;68.85;29.00;;;;;;;14.97;65.07;102102.03;4799998;29;120256;-80
2022/05/06 06:40:46;;;;;;;60.42;28.73;;;;;;;14.96;65.63;102097.72;4769495;29;119453;-80
2022/05/06 06:43:11;;;;;;;62.85;28.38;;;;;;;15.04;65.22;102103.75;4799715;29;119345;-80
2022/05/06 06:46:09;;;;;;;60.25;27.65;;;;;;;15.07;65.57;102091.03;4791342;29;120380;-80
2022/05/06 06:48:58;;;;;;;66.85;31.25;;;;;;;15.10;65.19;102093.69;4798373;29;119537;-80
2022/05/06 06:51:42;;;;;;;75.95;33.85;;;;;;;15.15;65.33;102098.66;4797397;29;119612;-80
2022/05/06 06:54:08;;;;;;;74.72;33.70;;;;;;;15.17;65.23;102093.44;4811475;29;119665;-80
2022/05/06 06:56:34;;;;;;;77.35;34.50;;;;;;;15.24;65.66;102101.50;4805036;29;119438;-80
2022/05/06 06:58:59;;;;;;;87.80;36.83;;;;;;;15.30;65.33;102099.69;4799757;29;119901;-81
2022/05/06 07:01:25;;;;;;;83.10;37.45;;;;;;;15.32;65.19;102091.72;4801680;29;119512;-80
2022/05/06 07:03:51;;;;;;;81.03;36.45;;;;;;;15.35;65.22;102095.56;4803814;29;119678;-79
2022/05/06 07:11:55;;;;;;;79.03;35.53;;;;;;;15.54;65.49;102096.47;4803602;29;119572;-80
2022/05/06 07:14:23;;;;;;;;;;;;;;;15.63;65.24;102108.44;4794954;29;119894;-80
2022/05/06 07:16:49;;;;;;;86.60;38.55;;;;;;;15.63;64.36;102100.13;4799038;29;119834;-80
2022/05/06 07:19:15;;;;;;;89.45;41.08;;;;;;;15.64;64.77;102100.91;4805927;29;121155;-80
2022/05/06 07:21:41;;;;;;;96.55;41.42;;;;;;;15.62;64.94;102097.81;4798361;29;119823;-80
2022/05/06 07:24:07;;;;;;;93.95;41.78;;;;;;;15.61;64.49;102104.53;4797364;29;120274;-80
2022/05/06 07:26:32;;;;;;;96.03;41.78;;;;;;;15.64;64.87;102106.44;4797138;29;119534;-80
2022/05/06 07:28:59;;;;;;;100.50;41.47;;;;;;;15.70;65.22;102107.38;4798068;29;119536;-80
2022/05/06 07:31:24;;;;;;;109.68;44.63;;;;;;;15.71;65.36;102100.63;4794917;29;121550;-80
2022/05/06 07:33:50;;;;;;;102.05;42.38;;;;;;;15.73;65.22;102098.19;4782549;29;120117;-80
2022/05/06 07:36:16;;;;;;;97.53;42.70;;;;;;;15.81;65.51;102099.44;4784057;29;119467;-80
2022/05/06 07:39:02;;;;;;;86.97;39.10;;;;;;;15.91;64.88;102087.22;4789599;29;119898;-80
2022/05/06 07:41:28;;;;;;;95.85;42.20;;;;;;;15.96;64.89;102083.84;4776334;29;119825;-80
2022/05/06 07:43:53;;;;;;;89.65;40.90;;;;;;;16.10;64.59;102087.31;4798973;29;119386;-80
2022/05/06 07:46:19;;;;;;;98.78;45.13;;;;;;;16.25;64.92;102102.13;4783991;29;120111;-80
2022/05/06 07:48:44;;;;;;;101.38;45.55;;;;;;;16.38;64.35;102097.28;4789882;29;119459;-80
2022/05/06 07:51:10;;;;;;;96.28;45.90;;;;;;;16.46;63.82;102087.44;4810168;29;119652;-80
2022/05/06 07:53:36;;;;;;;87.80;42.40;;;;;;;16.60;63.63;102093.66;4801268;29;119100;-80
2022/05/06 07:56:02;;;;;;;79.53;38.25;;;;;;;16.69;63.15;102096.44;4815300;29;119496;-81
2022/05/06 07:58:27;;;;;;;85.13;41.83;;;;;;;16.84;63.24;102105.72;4785589;29;119856;-80
2022/05/06 08:00:53;;;;;;;101.40;46.15;;;;;;;16.92;62.87;102106.19;4806233;29;119387;-80
2022/05/06 08:06:03;;;;;;;;;;;;;;;17.09;62.59;102096.34;4802374;29;119502;-80
2022/05/06 08:08:30;;;;;;;91.97;43.80;;;;;;;17.15;62.28;102091.75;4805485;29;120093;-80
2022/05/06 08:10:56;;;;;;;75.30;39.55;;;;;;;17.32;61.94;102098.53;4800351;29;119658;-80
2022/05/06 08:13:22;;;;;;;74.85;39.90;;;;;;;17.40;61.47;102099.75;4799856;29;119535;-80
2022/05/06 08:15:50;;;;;;;87.47;43.53;;;;;;;17.47;61.07;102101.41;4785739;29;119502;-80
2022/05/06 08:18:16;;;;;;;89.07;43.83;;;;;;;17.49;60.88;102096.19;4800505;29;119473;-80
2022/05/06 08:20:41;;;;;;;83.38;42.70;;;;;;;17.42;60.91;102091.72;4799649;29;120342;-80
2022/05/06 08:23:08;;;;;;;82.13;44.33;;;;;;;17.54;60.81;102100.34;4796435;29;119540;-80
2022/05/06 08:25:34;;;;;;;72.72;39.08;;;;;;;17.61;61.00;102098.03;4812211;29;120230;-80
2022/05/06 08:27:59;;;;;;;74.97;42.13;;;;;;;17.74;60.59;102098.66;4789720;29;119491;-80
2022/05/06 08:30:25;;;;;;;72.63;40.70;;;;;;;17.74;59.65;102076.44;4801463;29;119460;-80
2022/05/06 08:32:51;;;;;;;73.85;42.30;;;;;;;17.82;59.93;102090.00;4779915;29;122223;-80
2022/05/06 08:35:18;;;;;;;64.45;35.95;;;;;;;17.93;59.51;102093.81;4795823;29;119675;-80
2022/05/06 08:37:48;;;;;;;76.30;41.67;;;;;;;18.00;59.50;102098.28;4768993;29;121070;-80
2022/05/06 08:40:22;;;;;;;59.65;34.40;;;;;;;18.01;59.26;102078.38;4783830;29;120470;-81
2022/05/06 08:42:48;;;;;;;64.70;34.70;;;;;;;18.03;59.11;102080.69;4786042;29;119911;-80
2022/05/06 08:50:50;;;;;;;70.00;38.10;;;;;;;18.33;58.35;102093.50;4796205;29;119435;-80
2022/05/06 08:53:18;;;;;;;64.88;36.00;;;;;;;18.48;58.30;102090.03;4794996;29;120238;-80
2022/05/06 08:55:44;;;;;;;63.40;35.05;;;;;;;18.55;57.75;102084.13;4794773;29;120002;-81
2022/05/06 08:58:09;;;;;;;69.22;38.50;;;;;;;18.70;57.57;102077.44;4782736;29;120083;-80
2022/05/06 09:00:35;;;;;;;63.83;35.50;;;;;;;18.87;56.97;102085.34;4798993;29;120015;-80
2022/05/06 09:03:01;;;;;;;61.88;35.13;;;;;;;18.93;56.48;102075.13;4798913;29;119529;-80
2022/05/06 09:05:27;;;;;;;67.80;35.42;;;;;;;18.99;56.26;102084.31;4799371;29;119588;-80
2022/05/06 09:08:02;;;;;;;56.05;32.67;;;;;;;18.99;55.97;102073.19;4803805;29;120522;-81
2022/05/06 09:10:29;;;;;;;64.60;35.33;;;;;;;18.93;55.74;102083.44;4798793;29;120103;-80
2022/05/06 09:12:57;;;;;;;57.10;32.92;;;;;;;18.86;55.97;102081.78;4778616;29;122146;-80
2022/05/06 09:18:09;;;;;;;55.00;31.30;;;;;;;18.75;56.31;102070.44;4797834;29;122049;-80
2022/05/06 09:20:36;;;;;;;61.05;32.92;;;;;;;18.79;56.05;102084.16;4783500;29;119393;-81
2022/05/06 09:23:20;;;;;;;55.45;31.60;;;;;;;18.79;56.40;102079.38;4786444;29;119349;-80
2022/05/06 09:25:49;;;;;;;57.38;33.75;;;;;;;18.80;56.52;102086.47;4781781;29;120172;-81
2022/05/06 09:28:28;;;;;;;59.17;33.65;;;;;;;18.87;56.46;102088.09;4799622;29;119545;-80
2022/05/06 09:31:04;;;;;;;62.13;35.15;;;;;;;18.92;56.61;102077.09;4788160;29;119537;-80
2022/05/06 09:33:32;;;;;;;56.97;33.33;;;;;;;19.00;56.08;102072.72;4799181;29;119728;-80
2022/05/06 09:35:58;;;;;;;57.50;31.83;;;;;;;19.07;56.26;102076.38;4799907;29;119681;-80
2022/05/06 09:38:25;;;;;;;56.30;31.98;;;;;;;19.18;56.15;102071.03;4786390;29;120172;-80
2022/05/06 09:40:51;;;;;;;42.83;26.98;;;;;;;19.20;55.54;102063.75;4775171;29;120793;-80
2022/05/06 09:43:18;;;;;;;47.50;27.85;;;;;;;19.38;55.32;102073.94;4802663;29;119682;-80
2022/05/06 09:45:44;;;;;;;49.50;27.90;;;;;;;19.50;55.13;102074.91;4799417;29;119866;-80
2022/05/06 09:48:12;;;;;;;43.47;26.52;;;;;;;19.53;54.62;102083.09;4796207;29;119372;-80
2022/05/06 09:50:45;;;;;;;46.40;28.75;;;;;;;19.58;54.90;102079.63;4801285;29;119643;-80
2022/05/06 09:53:16;;;;;;;51.15;30.10;;;;;;;19.55;54.71;102061.13;4793618;29;122657;-80
2022/05/06 09:55:46;;;;;;;47.25;29.35;;;;;;;19.62;54.31;102066.28;4801169;29;120125;-81
2022/05/06 09:58:14;;;;;;;44.65;28.15;;;;;;;19.58;54.01;102071.28;4794177;29;119470;-81
2022/05/06 10:00:39;;;;;;;42.58;26.92;;;;;;;19.64;54.40;102074.19;4782652;29;120452;-80
2022/05/06 10:03:06;;;;;;;44.60;29.83;;;;;;;19.71;53.99;102067.47;4792978;29;119872;-80
2022/05/06 10:05:34;;;;;;;50.38;29.75;;;;;;;19.79;54.25;102068.59;4795284;29;120086;-80
2022/05/06 10:08:06;;;;;;;49.20;29.88;;;;;;;19.95;54.06;102064.56;4796885;29;120115;-80
2022/05/06 10:10:38;;;;;;;49.80;29.55;;;;;;;20.05;53.18;102063.19;4800448;29;119863;-80
2022/05/06 10:13:14;;;;;;;44.00;27.40;;;;;;;20.09;53.26;102061.72;4781248;29;120207;-80
2022/05/06 10:15:40;;;;;;;41.55;26.02;;;;;;;20.08;53.13;102062.22;4815207;29;120240;-80
2022/05/06 10:18:07;;;;;;;43.30;27.48;;;;;;;20.11;52.97;102056.47;4801791;29;119487;-80
2022/05/06 10:20:41;;;;;;;46.08;27.77;;;;;;;20.20;53.27;102059.13;4800607;29;120845;-80
2022/05/06 10:23:11;;;;;;;43.30;26.00;;;;;;;20.18;52.48;102044.13;4797847;29;119795;-80
2022/05/06 10:25:40;;;;;;;40.22;23.98;;;;;;;20.22;52.50;102056.63;4801166;29;119899;-80
2022/05/06 10:34:08;;;;;;;37.55;23.45;;;;;;;20.04;52.85;102054.06;4784227;29;119560;-80
2022/05/06 10:36:45;;;;;;;37.65;23.50;;;;;;;20.04;52.32;102059.63;4787110;29;119550;-80
2022/05/06 10:39:36;;;;;;;38.88;24.45;;;;;;;20.02;52.75;102048.22;4793349;29;119504;-80
2022/05/06 10:42:11;;;;;;;34.65;23.92;;;;;;;20.04;53.24;102053.28;4768687;29;121292;-80
2022/05/06 10:44:48;;;;;;;42.63;27.35;;;;;;;20.06;52.46;102059.91;4802495;29;119451;-80
2022/05/06 10:47:16;;;;;;;40.65;26.40;;;;;;;20.07;52.73;102049.53;4803128;29;119491;-80
2022/05/06 10:49:43;;;;;;;40.15;25.58;;;;;;;20.09;53.18;102053.38;4801715;29;120196;-80
2022/05/06 10:52:28;;;;;;;39.15;25.30;;;;;;;20.13;52.78;102048.38;4800947;29;119805;-80
2022/05/06 10:54:59;;;;;;;40.70;27.65;;;;;;;20.05;52.87;102036.09;4801678;29;119797;-80
2022/05/06 10:57:27;;;;;;;41.95;25.85;;;;;;;20.13;52.89;102048.38;4800977;29;120033;-80
2022/05/06 10:59:54;;;;;;;42.00;26.95;;;;;;;20.19;53.44;102043.66;4798005;29;120186;-80
2022/05/06 11:02:22;;;;;;;41.08;26.48;;;;;;;20.24;53.01;102037.38;4776988;29;120087;-80
2022/05/06 11:05:08;;;;;;;45.40;26.10;;;;;;;20.34;52.78;102032.44;4800278;29;120027;-80
2022/05/06 11:07:39;;;;;;;40.85;24.92;;;;;;;20.42;52.85;102035.63;4794513;29;119974;-80
2022/05/06 11:10:22;;;;;;;41.42;25.23;;;;;;;20.46;52.64;102025.03;4799696;29;120007;-81
2022/05/06 11:12:53;;;;;;;45.90;27.25;;;;;;;20.54;53.10;102034.50;4801563;29;119699;-80
2022/05/06 11:15:19;;;;;;;35.45;22.60;;;;;;;20.58;52.20;102032.28;4786169;29;119529;-80
2022/05/06 11:17:46;;;;;;;40.72;27.40;;;;;;;20.62;52.30;102034.88;4796836;29;120478;-80
2022/05/06 11:20:16;;;;;;;38.95;25.08;;;;;;;20.71;52.44;102040.31;4790931;29;120490;-80
2022/05/06 11:23:07;;;;;;;43.10;27.98;;;;;;;20.74;52.25;102040.09;4792577;29;119710;-81
2022/05/06 11:25:40;;;;;;;38.47;25.38;;;;;;;20.70;51.47;102033.19;4781716;29;119404;-80
2022/05/06 11:28:16;;;;;;;43.40;26.37;;;;;;;20.60;51.67;102017.88;4801317;29;119487;-80
2022/05/06 11:30:47;;;;;;;36.45;24.20;;;;;;;20.67;51.70;102025.81;4788899;29;119586;-80
2022/05/06 11:33:24;;;;;;;35.15;22.52;;;;;;;20.61;51.70;102013.84;4784151;29;119991;-80
2022/05/06 11:35:50;;;;;;;43.25;25.17;;;;;;;20.64;52.08;102016.41;4799259;29;120037;-80
2022/05/06 11:38:32;;;;;;;40.95;25.85;;;;;;;20.65;52.31;102023.53;4797315;29;120212;-80
2022/05/06 11:41:16;;;;;;;38.90;23.05;;;;;;;20.58;52.62;102014.78;4800328;29;119789;-80
2022/05/06 11:43:42;;;;;;;40.83;25.40;;;;;;;20.63;52.68;102014.88;4785636;29;119852;-81
2022/05/06 11:49:04;;;;;;;31.55;20.55;;;;;;;20.71;51.94;102006.84;4789697;29;119770;-81
2022/05/06 11:51:43;;;;;;;36.00;20.08;;;;;;;20.65;51.84;102001.22;4800901;29;120152;-80
2022/05/06 11:54:09;;;;;;;31.08;19.92;;;;;;;20.67;51.54;102007.06;4796876;29;119520;-81
2022/05/06 11:56:36;;;;;;;34.28;22.25;;;;;;;20.57;51.48;101991.72;4799403;29;119776;-80
2022/05/06 11:59:03;;;;;;;31.70;20.85;;;;;;;20.57;52.08;101997.28;4798546;29;121549;-81
2022/05/06 12:01:31;;;;;;;34.58;22.02;;;;;;;20.64;52.28;101998.91;4794614;29;119527;-80
2022/05/06 12:04:08;;;;;;;25.67;17.85;;;;;;;20.61;52.10;101991.53;4766218;29;121417;-80
2022/05/06 12:06:51;;;;;;;26.83;16.98;;;;;;;20.63;51.88;101997.38;4790777;29;120307;-80
2022/05/06 12:09:21;;;;;;;21.85;14.85;;;;;;;20.67;51.53;101990.34;4781009;29;120677;-80
2022/05/06 12:12:06;;;;;;;18.17;11.70;;;;;;;20.69;51.17;101990.59;4794932;29;121190;-80
2022/05/06 12:14:31;;;;;;;25.13;15.93;;;;;;;20.75;50.78;101993.47;4795536;29;119577;-80
2022/05/06 12:17:01;;;;;;;23.77;16.52;;;;;;;20.80;50.90;101993.50;4801857;29;119471;-80
2022/05/06 12:19:43;;;;;;;21.50;14.70;;;;;;;20.89;51.11;101994.63;4797723;29;121400;-80
2022/05/06 12:22:14;;;;;;;22.65;15.95;;;;;;;20.97;51.03;101984.56;4799496;29;119615;-80
2022/05/06 12:24:49;;;;;;;21.55;14.43;;;;;;;20.98;50.53;101972.91;4818545;29;119490;-80
2022/05/06 12:27:32;;;;;;;20.85;14.00;;;;;;;21.11;50.47;101986.50;4807881;29;120954;-81
2022/05/06 12:29:58;;;;;;;20.58;14.25;;;;;;;21.14;50.42;101983.47;4796924;29;119656;-81
2022/05/06 12:32:24;;;;;;;24.10;13.63;;;;;;;21.18;49.98;101983.25;4796744;29;123076;-81
2022/05/06 12:35:02;;;;;;;23.23;13.95;;;;;;;21.17;50.10;101986.53;4800980;29;119558;-80
2022/05/06 12:37:28;;;;;;;20.00;13.68;;;;;;;21.07;50.04;101972.00;4773156;29;120270;-80
2022/05/06 12:39:59;;;;;;;20.27;14.77;;;;;;;21.11;50.61;101980.91;4800131;29;119582;-81
2022/05/06 12:42:25;;;;;;;17.50;13.35;;;;;;;21.04;49.98;101976.50;4800440;29;119638;-81